Time;durP1;ratioP1;P1;durP2;ratioP2;P2;SDS_P1;SDS_P2;PMS_P1;PMS_P2;Temp;Humidity;BMP_temperature;BMP_pressure;BME280_temperature;BME280_humidity;BME280_pressure;Samples;Min_cycle;Max_cycle;Signal;HPM_P1;HPM_P2
2022/05/31 00:00:23;;;;;;;11.45;5.50;;;;;;;10.82;73.53;101178.47;5014555;28;20039;-74
2022/05/31 00:02:50;;;;;;;7.55;5.25;;;;;;;10.84;72.90;101176.41;5013213;28;20114;-74
2022/05/31 00:05:15;;;;;;;13.55;4.95;;;;;;;10.87;73.43;101178.66;5014314;28;20559;-74
2022/05/31 00:07:42;;;;;;;7.93;5.22;;;;;;;10.86;73.73;101177.00;5017358;28;20578;-74
2022/05/31 00:10:10;;;;;;;8.65;5.45;;;;;;;10.83;73.42;101174.72;5032785;28;20033;-74
2022/05/31 00:12:36;;;;;;;10.95;5.15;;;;;;;10.75;74.17;101173.13;5034022;28;20036;-74
2022/05/31 00:15:04;;;;;;;10.10;5.60;;;;;;;10.70;74.10;101172.91;5032315;28;20410;-74
2022/05/31 00:17:29;;;;;;;7.43;4.90;;;;;;;10.65;73.26;101164.63;5030221;28;20479;-74
2022/05/31 00:19:54;;;;;;;7.90;5.00;;;;;;;10.69;73.24;101171.28;5013222;28;20083;-74
2022/05/31 00:22:22;;;;;;;10.38;5.13;;;;;;;10.66;73.67;101174.44;5012947;28;20491;-74
2022/05/31 00:24:47;;;;;;;10.27;5.25;;;;;;;10.62;73.53;101167.78;5014311;28;20504;-74
2022/05/31 00:27:19;;;;;;;8.63;5.05;;;;;;;10.59;74.10;101160.09;5012638;28;20030;-74
2022/05/31 00:29:47;;;;;;;6.72;5.03;;;;;;;10.57;74.72;101160.31;5019033;28;20386;-74
2022/05/31 00:32:14;;;;;;;7.72;4.85;;;;;;;10.55;73.60;101175.94;5031995;28;20021;-75
2022/05/31 00:34:43;;;;;;;8.75;5.18;;;;;;;10.55;73.79;101175.09;5033769;28;20156;-74
2022/05/31 00:37:09;;;;;;;8.02;4.88;;;;;;;10.52;75.21;101175.53;5033567;28;20030;-74
2022/05/31 00:39:35;;;;;;;7.45;5.00;;;;;;;10.36;75.87;101164.19;5013302;28;20045;-74
2022/05/31 00:42:02;;;;;;;12.25;5.50;;;;;;;10.35;75.79;101176.03;5013735;28;20030;-74
2022/05/31 00:44:28;;;;;;;9.73;5.25;;;;;;;10.35;74.55;101170.63;5013548;28;20478;-74
2022/05/31 00:47:00;;;;;;;8.57;4.93;;;;;;;10.31;76.22;101171.25;5012579;28;20026;-74
2022/05/31 00:49:36;;;;;;;6.07;5.00;;;;;;;10.30;75.34;101178.53;5029373;28;20037;-74
2022/05/31 00:52:15;;;;;;;9.27;5.18;;;;;;;10.28;75.96;101172.50;5022955;28;20037;-74
2022/05/31 00:54:48;;;;;;;10.82;5.45;;;;;;;10.22;76.66;101174.19;5012193;28;20035;-74
2022/05/31 00:57:14;;;;;;;9.90;5.15;;;;;;;10.14;77.76;101176.31;5012167;28;20033;-74
2022/05/31 00:59:54;;;;;;;8.50;5.30;;;;;;;10.18;76.81;101174.84;5031019;28;20043;-74
2022/05/31 01:02:20;;;;;;;12.15;5.63;;;;;;;10.11;76.89;101172.16;5030548;28;20091;-74
2022/05/31 01:04:50;;;;;;;9.23;5.75;;;;;;;10.13;77.07;101169.22;5033326;28;20033;-74
2022/05/31 01:07:17;;;;;;;7.38;5.50;;;;;;;10.17;76.52;101171.28;5023434;28;20498;-74
2022/05/31 01:09:43;;;;;;;12.15;5.65;;;;;;;10.13;77.61;101166.53;5012217;28;20022;-74
2022/05/31 01:12:09;;;;;;;10.77;5.68;;;;;;;10.05;77.76;101163.00;5011687;28;20509;-74
2022/05/31 01:14:35;;;;;;;11.20;5.80;;;;;;;10.06;78.06;101164.69;4995792;28;20057;-74
2022/05/31 01:17:07;;;;;;;8.98;5.50;;;;;;;10.04;77.64;101171.34;5002136;28;20038;-74
2022/05/31 01:22:17;;;;;;;8.27;5.80;;;;;;;9.94;79.42;101163.69;5032815;28;20048;-74
2022/05/31 01:24:55;;;;;;;12.70;5.97;;;;;;;9.95;79.77;101168.06;5031672;28;20033;-74
2022/05/31 01:28:00;;;;;;;7.57;5.43;;;;;;;9.96;79.78;101161.59;5021845;28;20172;-74
2022/05/31 01:30:29;;;;;;;9.85;5.50;;;;;;;9.87;79.75;101161.03;5011652;28;20150;-74
2022/05/31 01:33:00;;;;;;;9.05;5.75;;;;;;;9.86;80.14;101158.53;5012748;28;20037;-74
2022/05/31 01:35:31;;;;;;;8.70;6.18;;;;;;;9.81;81.17;101161.03;5011604;28;20463;-74
2022/05/31 01:38:21;;;;;;;9.77;5.97;;;;;;;9.78;79.88;101156.88;5025619;28;20029;-74
2022/05/31 01:41:04;;;;;;;7.72;6.13;;;;;;;9.79;80.63;101163.13;5032153;28;20034;-74
2022/05/31 01:43:30;;;;;;;10.63;6.18;;;;;;;9.75;80.70;101163.53;5031492;28;20033;-74
2022/05/31 01:46:04;;;;;;;10.48;6.30;;;;;;;9.64;80.89;101161.47;5031381;28;20029;-74
2022/05/31 01:48:30;;;;;;;9.98;6.00;;;;;;;9.58;80.97;101154.22;5029565;28;20041;-74
2022/05/31 01:50:57;;;;;;;11.23;7.30;;;;;;;9.60;81.40;101162.94;5032555;28;20033;-74
2022/05/31 01:53:22;;;;;;;11.82;6.53;;;;;;;9.60;81.78;101159.41;5030948;28;20033;-74
2022/05/31 01:55:48;;;;;;;10.35;6.15;;;;;;;9.54;80.89;101151.13;5031240;28;20397;-74
2022/05/31 01:58:19;;;;;;;11.15;6.50;;;;;;;9.53;81.93;101159.44;5014464;28;20038;-74
2022/05/31 02:00:45;;;;;;;8.37;6.30;;;;;;;9.57;82.28;101150.69;5009228;28;20104;-74
2022/05/31 02:03:13;;;;;;;12.10;7.13;;;;;;;9.57;83.11;101156.09;5011004;28;20324;-74
2022/05/31 02:05:51;;;;;;;10.98;6.25;;;;;;;9.58;82.63;101154.22;5011452;28;20064;-74
2022/05/31 02:08:19;;;;;;;7.93;6.00;;;;;;;9.50;82.32;101155.28;5027236;28;20053;-74
2022/05/31 02:10:46;;;;;;;11.38;6.57;;;;;;;9.54;82.28;101151.13;5030968;28;20103;-74
2022/05/31 02:13:12;;;;;;;10.18;5.90;;;;;;;9.54;82.28;101150.28;5031558;28;20053;-74
2022/05/31 02:15:37;;;;;;;11.25;6.50;;;;;;;9.61;81.47;101153.78;5031092;28;20041;-74
2022/05/31 02:18:03;;;;;;;11.10;6.55;;;;;;;9.60;82.10;101144.03;5019693;28;20041;-74
2022/05/31 02:20:28;;;;;;;12.25;6.32;;;;;;;9.72;82.87;101150.47;5030725;28;20034;-71
2022/05/31 02:22:54;;;;;;;12.68;6.55;;;;;;;9.72;80.70;101142.34;5031115;28;20041;-73
2022/05/31 02:25:19;;;;;;;9.93;6.10;;;;;;;9.75;80.25;101141.94;5031621;28;20025;-73
2022/05/31 02:27:45;;;;;;;11.77;6.38;;;;;;;9.76;79.62;101143.56;5031870;28;20045;-71
2022/05/31 02:30:11;;;;;;;11.57;6.45;;;;;;;9.79;80.10;101136.09;5032024;28;20052;-75
2022/05/31 02:32:37;;;;;;;11.98;6.32;;;;;;;9.77;79.13;101139.00;5030802;28;20076;-73
2022/05/31 02:35:07;;;;;;;9.15;5.97;;;;;;;9.80;80.00;101143.13;5030934;28;20022;-85
2022/05/31 02:37:33;;;;;;;9.80;6.15;;;;;;;9.78;81.07;101123.63;5022045;28;20483;-73
2022/05/31 02:39:59;;;;;;;12.13;5.85;;;;;;;9.74;80.56;101134.84;5012150;28;20036;-72
2022/05/31 02:42:25;;;;;;;11.13;5.97;;;;;;;9.76;79.02;101127.34;5012499;28;20521;-72
2022/05/31 02:44:51;;;;;;;8.10;5.88;;;;;;;9.77;80.11;101136.31;5012368;28;20112;-72
2022/05/31 02:47:17;;;;;;;6.45;5.32;;;;;;;9.79;79.62;101130.69;5018954;28;20033;-72
2022/05/31 02:49:44;;;;;;;8.27;5.68;;;;;;;9.74;79.71;101121.34;5031978;28;20033;-72
2022/05/31 02:52:09;;;;;;;5.97;5.38;;;;;;;9.74;80.57;101129.44;5033396;28;20029;-72
2022/05/31 02:54:35;;;;;;;11.43;5.93;;;;;;;9.73;79.65;101132.34;5035507;28;20037;-72
2022/05/31 02:57:00;;;;;;;9.80;6.20;;;;;;;9.74;79.84;101129.44;5031019;28;20064;-72
2022/05/31 02:59:25;;;;;;;10.18;5.50;;;;;;;9.76;80.41;101127.34;5014350;28;20076;-72
2022/05/31 03:01:51;;;;;;;10.82;6.30;;;;;;;9.84;79.77;101125.47;5013604;28;20087;-72
2022/05/31 03:04:17;;;;;;;7.80;5.10;;;;;;;9.81;80.42;101126.72;5015611;28;20353;-72
2022/05/31 03:06:43;;;;;;;10.15;5.55;;;;;;;9.83;79.45;101121.94;5017481;28;20064;-72
2022/05/31 03:09:09;;;;;;;9.20;5.55;;;;;;;9.88;79.45;101122.13;5035306;28;20064;-72
2022/05/31 03:11:52;;;;;;;10.07;5.78;;;;;;;9.87;78.23;101120.47;5035097;28;20546;-72
2022/05/31 03:14:27;;;;;;;11.50;5.82;;;;;;;9.84;80.09;101125.47;5035034;28;20107;-72
2022/05/31 03:17:00;;;;;;;11.13;6.20;;;;;;;9.84;80.40;101128.16;5032291;28;20056;-72
2022/05/31 03:19:29;;;;;;;11.07;5.88;;;;;;;9.84;80.12;101120.88;5034862;28;20108;-72
2022/05/31 03:22:01;;;;;;;11.18;6.07;;;;;;;9.85;80.83;101119.03;5033982;28;20029;-72
2022/05/31 03:24:39;;;;;;;9.60;5.80;;;;;;;9.88;80.04;101118.59;5035021;28;20034;-72
2022/05/31 03:27:08;;;;;;;9.38;5.93;;;;;;;9.83;80.15;101115.69;5030234;28;20026;-72
2022/05/31 03:29:37;;;;;;;10.02;5.75;;;;;;;9.95;79.98;101114.00;5015545;28;20483;-72
2022/05/31 03:32:02;;;;;;;12.13;5.88;;;;;;;9.93;79.72;101113.38;5014890;28;20030;-72
2022/05/31 03:34:28;;;;;;;8.40;5.72;;;;;;;9.95;80.88;101119.41;5015034;28;20034;-72
2022/05/31 03:36:53;;;;;;;11.20;5.70;;;;;;;9.97;79.68;101109.19;5017287;28;20399;-72
2022/05/31 03:39:18;;;;;;;7.30;5.88;;;;;;;9.95;79.86;101108.59;5034749;28;20060;-72
2022/05/31 03:41:43;;;;;;;10.73;5.95;;;;;;;9.99;79.95;101119.78;5034939;28;20079;-72
2022/05/31 03:44:09;;;;;;;9.05;5.25;;;;;;;9.98;80.38;101118.13;5033552;28;20037;-72
2022/05/31 03:46:34;;;;;;;8.38;5.20;;;;;;;9.98;79.57;101108.16;5034413;28;20390;-72
2022/05/31 03:49:00;;;;;;;9.90;5.80;;;;;;;9.96;80.86;101109.41;5015258;28;20030;-72
2022/05/31 03:51:25;;;;;;;12.55;5.80;;;;;;;10.01;79.71;101112.28;5014556;28;20026;-72
2022/05/31 03:53:51;;;;;;;13.13;6.15;;;;;;;9.99;79.65;101111.69;5014633;28;20050;-72
2022/05/31 03:56:16;;;;;;;10.65;6.00;;;;;;;9.98;81.06;101115.41;5014631;28;20087;-72
2022/05/31 03:58:41;;;;;;;9.10;6.28;;;;;;;9.96;80.43;101106.72;5031487;28;20116;-72
2022/05/31 04:01:07;;;;;;;10.52;6.18;;;;;;;9.92;78.71;101104.44;5031892;28;20037;-72
2022/05/31 04:03:32;;;;;;;10.75;6.40;;;;;;;9.92;80.31;101109.03;5033718;28;20056;-72
2022/05/31 04:05:58;;;;;;;11.82;6.50;;;;;;;9.97;80.11;101109.19;5034539;28;20112;-72
2022/05/31 04:08:24;;;;;;;10.40;5.88;;;;;;;9.99;79.18;101114.38;5019710;28;20113;-72
2022/05/31 04:10:50;;;;;;;8.88;6.10;;;;;;;9.96;78.81;101115.63;5014179;28;20388;-72
2022/05/31 04:13:16;;;;;;;10.35;5.97;;;;;;;9.98;79.71;101115.41;5014187;28;20057;-73
2022/05/31 04:15:42;;;;;;;10.57;5.93;;;;;;;9.98;80.93;101104.59;5014296;28;20105;-72
2022/05/31 04:18:08;;;;;;;9.45;5.88;;;;;;;9.97;80.04;101106.50;5025998;28;20493;-72
2022/05/31 04:20:37;;;;;;;10.45;7.03;;;;;;;9.99;80.17;101104.41;5033632;28;20034;-72
2022/05/31 04:25:46;;;;;;;10.98;6.22;;;;;;;10.01;80.07;101112.28;5020252;28;20395;-72
2022/05/31 04:28:11;;;;;;;8.80;6.07;;;;;;;10.02;79.65;101109.38;5013010;28;20034;-72
2022/05/31 04:30:37;;;;;;;10.05;6.35;;;;;;;10.03;80.67;101105.63;5013651;28;20113;-72
2022/05/31 04:33:03;;;;;;;11.38;6.25;;;;;;;10.03;79.09;101115.63;5014119;28;20034;-72
2022/05/31 04:35:29;;;;;;;12.57;6.65;;;;;;;10.03;79.01;101108.34;5024592;28;20033;-72
2022/05/31 04:37:54;;;;;;;12.00;6.30;;;;;;;10.07;80.33;101108.72;5033877;28;20057;-72
2022/05/31 04:40:20;;;;;;;11.45;6.47;;;;;;;10.08;80.60;101108.53;5032304;28;20075;-72
2022/05/31 04:42:45;;;;;;;13.43;6.82;;;;;;;10.06;81.39;101110.59;5033848;28;20473;-72
2022/05/31 04:45:11;;;;;;;12.60;6.80;;;;;;;10.07;79.72;101106.88;5024957;28;20053;-72
2022/05/31 04:47:37;;;;;;;14.80;6.88;;;;;;;10.06;81.39;101105.19;5016843;28;20056;-72
2022/05/31 04:50:02;;;;;;;13.23;6.90;;;;;;;10.04;80.74;101093.78;5016017;28;20040;-72
2022/05/31 04:52:27;;;;;;;11.40;7.03;;;;;;;10.07;80.75;101101.47;5033355;28;20459;-72
2022/05/31 04:54:53;;;;;;;14.25;7.18;;;;;;;10.03;81.18;101097.53;5027355;28;20034;-72
2022/05/31 04:57:18;;;;;;;15.32;7.03;;;;;;;10.13;81.81;101104.34;5013767;28;20375;-72
2022/05/31 04:59:45;;;;;;;16.73;7.43;;;;;;;10.13;81.30;101098.94;5013654;28;20033;-72
2022/05/31 05:02:10;;;;;;;15.20;7.72;;;;;;;10.15;81.15;101096.84;5020319;28;20053;-72
2022/05/31 05:04:35;;;;;;;11.70;6.93;;;;;;;10.21;81.60;101096.00;5033107;28;20069;-72
2022/05/31 05:07:01;;;;;;;11.77;7.22;;;;;;;10.19;81.18;101100.75;5033333;28;20537;-72
2022/05/31 05:09:26;;;;;;;8.05;6.85;;;;;;;10.22;81.04;101094.91;5033013;28;20060;-72
2022/05/31 05:11:51;;;;;;;8.63;6.65;;;;;;;10.25;81.34;101091.78;5031369;28;20029;-72
2022/05/31 05:14:16;;;;;;;14.07;7.40;;;;;;;10.29;80.73;101096.53;5032459;28;20061;-72
2022/05/31 05:16:42;;;;;;;10.43;6.90;;;;;;;10.33;80.67;101091.56;5032822;28;20079;-72
2022/05/31 05:19:07;;;;;;;11.50;6.93;;;;;;;10.31;80.91;101093.66;5033116;28;20040;-72
2022/05/31 05:21:33;;;;;;;13.45;7.18;;;;;;;10.35;80.98;101092.19;5029824;28;20041;-72
2022/05/31 05:23:58;;;;;;;12.93;7.53;;;;;;;10.37;81.67;101094.66;5013349;28;20378;-72
2022/05/31 05:26:23;;;;;;;15.23;8.20;;;;;;;10.37;81.76;101090.09;5012950;28;20494;-72
2022/05/31 05:31:35;;;;;;;16.83;8.13;;;;;;;10.45;81.49;101091.72;5015097;28;20502;-72
2022/05/31 05:34:02;;;;;;;13.05;7.72;;;;;;;10.46;81.87;101093.34;5031587;28;20057;-72
2022/05/31 05:36:28;;;;;;;11.52;8.25;;;;;;;10.50;82.37;101096.47;5032729;28;20048;-72
2022/05/31 05:38:54;;;;;;;10.63;7.97;;;;;;;10.54;82.00;101095.00;5029892;28;20029;-72
2022/05/31 05:41:20;;;;;;;15.45;7.75;;;;;;;10.57;81.92;101089.13;5012564;28;20044;-73
2022/05/31 05:43:46;;;;;;;16.33;8.38;;;;;;;10.53;82.73;101090.63;5011782;28;20037;-72
2022/05/31 05:46:17;;;;;;;12.52;7.75;;;;;;;10.55;82.51;101097.47;5012910;28;20032;-72
2022/05/31 05:48:43;;;;;;;16.63;8.35;;;;;;;10.55;82.93;101091.22;5012756;28;20060;-72
2022/05/31 05:51:21;;;;;;;13.52;8.48;;;;;;;10.55;83.06;101093.91;5032629;28;20386;-72
2022/05/31 05:53:46;;;;;;;14.48;7.95;;;;;;;10.57;82.55;101100.78;5031230;28;20124;-73
2022/05/31 05:56:12;;;;;;;12.73;8.85;;;;;;;10.60;82.50;101094.13;5032698;28;20064;-73
2022/05/31 05:58:39;;;;;;;14.18;8.52;;;;;;;10.63;83.21;101101.78;5031070;28;20060;-72
2022/05/31 06:01:08;;;;;;;13.70;8.40;;;;;;;10.64;83.35;101095.31;5020737;28;20111;-72
2022/05/31 06:03:44;;;;;;;15.13;8.48;;;;;;;10.65;83.12;101096.97;5032219;28;20053;-72
2022/05/31 06:06:12;;;;;;;14.40;9.20;;;;;;;10.64;84.47;101085.34;5032389;28;20025;-72
2022/05/31 06:08:45;;;;;;;21.15;8.98;;;;;;;10.70;83.61;101085.50;5032096;28;20069;-72
2022/05/31 06:11:23;;;;;;;15.60;9.00;;;;;;;10.76;82.80;101090.84;5020847;28;20048;-72
2022/05/31 06:13:57;;;;;;;12.68;8.95;;;;;;;10.74;82.96;101095.66;4994538;28;20058;-72
2022/05/31 06:16:26;;;;;;;11.55;8.70;;;;;;;10.78;83.27;101086.06;5012424;28;20022;-73
2022/05/31 06:18:58;;;;;;;15.90;9.18;;;;;;;10.85;83.98;101085.16;5012477;28;20030;-72
2022/05/31 06:21:25;;;;;;;16.88;9.43;;;;;;;10.96;83.54;101087.13;5023072;28;20029;-72
2022/05/31 06:23:53;;;;;;;15.18;9.18;;;;;;;10.98;83.01;101082.34;5031971;28;20036;-72
2022/05/31 06:26:18;;;;;;;15.10;9.40;;;;;;;11.04;82.67;101086.88;5032876;28;20108;-72
2022/05/31 06:28:44;;;;;;;15.10;10.13;;;;;;;11.08;82.24;101079.97;5036369;28;20061;-72
2022/05/31 06:31:10;;;;;;;15.43;9.98;;;;;;;11.24;82.98;101083.97;5026487;28;20030;-72
2022/05/31 06:33:35;;;;;;;18.30;10.27;;;;;;;11.30;83.65;101087.66;5014841;28;20037;-72
2022/05/31 06:36:02;;;;;;;15.43;9.88;;;;;;;11.39;82.91;101096.34;5015994;28;20037;-72
2022/05/31 06:38:29;;;;;;;13.13;9.02;;;;;;;11.43;83.11;101098.38;5014818;28;20122;-72
2022/05/31 06:40:55;;;;;;;15.23;9.88;;;;;;;11.52;82.68;101097.03;5023247;28;20029;-73
2022/05/31 06:43:20;;;;;;;13.10;9.70;;;;;;;11.56;82.00;101102.00;5035900;28;20030;-73
2022/05/31 06:45:46;;;;;;;15.23;9.52;;;;;;;11.63;82.08;101102.75;5035665;28;20040;-72
2022/05/31 06:48:11;;;;;;;16.67;9.45;;;;;;;11.76;80.43;101096.34;5035679;28;20025;-72
2022/05/31 06:50:36;;;;;;;13.25;9.05;;;;;;;11.77;81.18;101095.28;5030955;28;20034;-72
2022/05/31 06:58:29;;;;;;;13.90;9.25;;;;;;;11.83;77.18;101097.91;5023642;28;20087;-73
2022/05/31 07:00:56;;;;;;;13.82;8.93;;;;;;;11.93;77.60;101097.41;5033153;28;20112;-73
2022/05/31 07:03:21;;;;;;;12.10;8.77;;;;;;;12.05;76.95;101094.78;5035787;28;20155;-73
2022/05/31 07:05:47;;;;;;;14.45;9.25;;;;;;;12.14;75.95;101095.25;5035422;28;20494;-73
2022/05/31 07:08:12;;;;;;;14.98;8.32;;;;;;;12.30;74.65;101091.91;5032301;28;20021;-73
2022/05/31 07:10:39;;;;;;;12.40;8.68;;;;;;;12.40;72.82;101100.31;5026011;28;20172;-73
2022/05/31 07:13:04;;;;;;;13.07;8.07;;;;;;;12.58;73.45;101096.72;5015082;28;20455;-73
2022/05/31 07:15:31;;;;;;;10.32;7.50;;;;;;;12.73;72.40;101096.28;5013676;28;20030;-73
2022/05/31 07:17:56;;;;;;;10.50;7.95;;;;;;;12.86;72.06;101088.97;4999894;28;20493;-73
2022/05/31 07:20:22;;;;;;;10.13;7.10;;;;;;;13.06;72.17;101088.66;5035367;28;20049;-72
2022/05/31 07:22:47;;;;;;;16.80;8.38;;;;;;;13.16;71.00;101097.03;5034513;28;20045;-71
2022/05/31 07:25:12;;;;;;;12.40;7.97;;;;;;;13.16;69.50;101085.34;5034983;28;20041;-73
2022/05/31 07:27:38;;;;;;;10.50;7.75;;;;;;;13.26;69.38;101091.81;5028578;28;20045;-73
2022/05/31 07:30:04;;;;;;;12.10;7.40;;;;;;;13.29;69.99;101088.63;5015148;28;20038;-75
2022/05/31 07:32:29;;;;;;;10.23;6.10;;;;;;;13.35;68.63;101095.03;4997573;28;20033;-73
2022/05/31 07:34:55;;;;;;;12.70;7.00;;;;;;;13.34;68.09;101090.66;5015282;28;20427;-73
2022/05/31 07:37:20;;;;;;;9.35;6.63;;;;;;;13.36;68.58;101090.44;5016693;28;20040;-74
2022/05/31 07:39:48;;;;;;;9.55;6.78;;;;;;;13.42;68.65;101086.75;5016094;28;20044;-74
2022/05/31 07:42:14;;;;;;;11.13;7.03;;;;;;;13.46;68.82;101088.75;5018578;28;20033;-73
2022/05/31 07:44:39;;;;;;;10.88;7.10;;;;;;;13.52;68.12;101095.13;5034623;28;20094;-73
2022/05/31 07:47:05;;;;;;;13.00;6.18;;;;;;;13.57;66.60;101078.97;5033765;28;20033;-74
2022/05/31 07:49:30;;;;;;;12.38;6.03;;;;;;;13.68;67.52;101079.16;5034435;28;20042;-78
2022/05/31 07:51:56;;;;;;;10.77;5.55;;;;;;;13.78;66.21;101080.22;5033329;28;20048;-71
2022/05/31 07:54:21;;;;;;;12.10;5.70;;;;;;;13.83;65.57;101080.28;5034751;28;20459;-72
2022/05/31 07:56:47;;;;;;;7.78;4.97;;;;;;;13.83;64.59;101077.56;5033773;28;20033;-73
2022/05/31 07:59:12;;;;;;;8.23;5.38;;;;;;;13.85;64.49;101069.19;5017402;28;20534;-73
2022/05/31 08:01:39;;;;;;;10.27;5.93;;;;;;;13.86;65.15;101070.84;5031741;28;20110;-73
2022/05/31 08:04:04;;;;;;;8.43;6.03;;;;;;;13.85;65.45;101074.63;5034626;28;20037;-72
2022/05/31 08:06:32;;;;;;;6.30;5.60;;;;;;;13.85;64.48;101080.06;5034215;28;20033;-74
2022/05/31 08:08:58;;;;;;;10.57;5.80;;;;;;;13.90;65.99;101074.72;5034285;28;20041;-74
2022/05/31 08:11:26;;;;;;;10.18;6.30;;;;;;;13.99;64.20;101069.72;5032971;28;20391;-74
2022/05/31 08:13:51;;;;;;;10.15;5.38;;;;;;;14.09;63.91;101067.19;5031584;28;20098;-74
2022/05/31 08:16:18;;;;;;;10.90;5.88;;;;;;;14.22;65.23;101059.78;5034253;28;20022;-74
2022/05/31 08:18:44;;;;;;;9.82;6.03;;;;;;;14.31;63.94;101061.91;5033934;28;20164;-74
2022/05/31 08:21:16;;;;;;;8.15;5.63;;;;;;;14.35;63.46;101067.66;5034135;28;20029;-74
2022/05/31 08:23:41;;;;;;;9.05;5.50;;;;;;;14.47;64.38;101065.69;5032164;28;20105;-74
2022/05/31 08:26:07;;;;;;;11.63;6.10;;;;;;;14.54;63.83;101060.91;5034166;28;20029;-74
2022/05/31 08:28:33;;;;;;;12.95;5.53;;;;;;;14.56;62.29;101057.13;5034137;28;20116;-74
2022/05/31 08:31:10;;;;;;;9.63;5.93;;;;;;;14.65;63.33;101064.66;5033920;28;20101;-73
2022/05/31 08:33:37;;;;;;;12.55;6.80;;;;;;;14.72;63.14;101067.25;5019354;28;20112;-73
2022/05/31 08:36:03;;;;;;;11.48;7.40;;;;;;;14.71;62.44;101068.31;5031286;28;20045;-75
2022/05/31 08:38:29;;;;;;;11.60;5.88;;;;;;;14.76;62.18;101062.13;5033457;28;20037;-74
2022/05/31 08:41:10;;;;;;;9.75;6.15;;;;;;;14.79;62.36;101056.16;5031342;28;20044;-75
2022/05/31 08:43:45;;;;;;;8.57;6.10;;;;;;;14.93;63.57;101062.94;5014071;28;20030;-74
2022/05/31 08:46:14;;;;;;;9.23;5.80;;;;;;;15.00;62.44;101057.31;5013899;28;20034;-74
2022/05/31 08:48:57;;;;;;;11.40;5.97;;;;;;;14.97;62.15;101064.06;5024414;28;20029;-75
2022/05/31 08:51:53;;;;;;;12.15;6.05;;;;;;;15.01;61.19;101062.50;5033522;28;20178;-73
2022/05/31 08:57:13;;;;;;;9.35;5.53;;;;;;;15.07;61.99;101058.78;5033136;28;20103;-73
2022/05/31 08:59:48;;;;;;;8.95;5.60;;;;;;;15.06;59.00;101054.41;5033093;28;20145;-75
2022/05/31 09:02:29;;;;;;;10.82;5.60;;;;;;;15.10;60.36;101057.47;5029890;28;20037;-73
2022/05/31 09:05:06;;;;;;;8.13;5.15;;;;;;;15.16;58.97;101061.09;5020875;28;20060;-72
2022/05/31 09:08:11;;;;;;;6.30;4.93;;;;;;;15.21;59.85;101061.97;5031619;28;20563;-74
2022/05/31 09:10:48;;;;;;;6.95;5.38;;;;;;;15.28;60.38;101064.53;5031527;28;20136;-75
2022/05/31 09:13:28;;;;;;;8.10;5.70;;;;;;;15.20;59.93;101056.78;5038434;28;20092;-74
2022/05/31 09:15:59;;;;;;;7.60;6.30;;;;;;;15.13;59.30;101056.16;5031553;28;20493;-74
2022/05/31 09:18:46;;;;;;;8.43;5.70;;;;;;;15.17;60.56;101057.28;5032543;28;20044;-74
2022/05/31 09:21:27;;;;;;;8.10;5.60;;;;;;;15.33;61.54;101059.16;5032617;28;20091;-73
2022/05/31 09:23:55;;;;;;;7.40;5.60;;;;;;;15.51;59.84;101057.22;5011840;28;20037;-73
2022/05/31 09:26:32;;;;;;;7.15;5.35;;;;;;;15.61;59.98;101057.34;5013306;28;20073;-75
2022/05/31 09:29:06;;;;;;;9.02;5.78;;;;;;;15.55;58.84;101052.88;5025989;28;20087;-73
2022/05/31 09:31:55;;;;;;;9.70;5.60;;;;;;;15.58;59.90;101055.13;5031343;28;20055;-74
2022/05/31 09:34:50;;;;;;;9.77;5.43;;;;;;;15.73;59.74;101052.59;5042116;28;20474;-74
2022/05/31 09:37:25;;;;;;;9.40;5.00;;;;;;;15.87;58.98;101054.97;4981728;28;20162;-75
2022/05/31 09:40:28;;;;;;;8.82;5.82;;;;;;;15.90;55.90;101059.91;5034682;28;20032;-73
2022/05/31 09:43:14;;;;;;;6.68;4.95;;;;;;;15.88;57.12;101056.59;5052472;28;20033;-74
2022/05/31 09:46:05;;;;;;;7.65;4.80;;;;;;;15.99;56.94;101052.06;5048630;28;20436;-74
2022/05/31 09:48:31;;;;;;;9.02;5.18;;;;;;;16.13;57.07;101051.41;5022076;28;20060;-73
2022/05/31 09:51:24;;;;;;;8.68;5.72;;;;;;;16.28;58.92;101055.38;5032406;28;20029;-74
2022/05/31 09:59:25;;;;;;;7.45;5.70;;;;;;;16.27;55.15;101042.81;5031869;28;20044;-74
2022/05/31 10:01:51;;;;;;;7.57;5.65;;;;;;;16.18;55.42;101038.88;5029150;28;20055;-75
2022/05/31 10:04:24;;;;;;;8.65;5.50;;;;;;;16.10;55.58;101043.72;5032430;28;20104;-74
2022/05/31 10:06:54;;;;;;;6.38;5.28;;;;;;;16.08;56.13;101043.16;5030885;28;20516;-75
2022/05/31 10:09:21;;;;;;;7.68;5.22;;;;;;;16.10;54.97;101051.91;5031166;28;20586;-74
2022/05/31 10:11:49;;;;;;;7.50;5.85;;;;;;;16.13;55.86;101043.22;5031532;28;20124;-73
2022/05/31 10:14:22;;;;;;;8.82;5.50;;;;;;;16.09;55.54;101038.53;5032310;28;20053;-75
2022/05/31 10:16:49;;;;;;;8.00;5.80;;;;;;;16.18;56.56;101036.97;5032136;28;20092;-75
2022/05/31 10:19:41;;;;;;;9.35;6.07;;;;;;;16.25;56.32;101028.59;5030898;28;20120;-75
2022/05/31 10:22:33;;;;;;;9.15;6.05;;;;;;;16.21;56.89;101036.47;5026474;28;20038;-75
2022/05/31 10:24:58;;;;;;;8.30;5.72;;;;;;;16.12;56.76;101029.81;5026634;28;20467;-75
2022/05/31 10:27:27;;;;;;;10.27;6.07;;;;;;;16.01;55.40;101037.09;5030476;28;20124;-76
2022/05/31 10:29:59;;;;;;;9.07;5.75;;;;;;;15.96;57.59;101039.78;5032050;28;20079;-75
2022/05/31 10:32:32;;;;;;;8.52;6.03;;;;;;;15.99;57.83;101046.59;5032152;28;20060;-76
2022/05/31 10:35:29;;;;;;;8.38;6.22;;;;;;;16.02;56.98;101049.66;5031999;28;20071;-76
2022/05/31 10:37:59;;;;;;;9.05;6.03;;;;;;;16.04;57.87;101035.75;5031699;28;20474;-75
2022/05/31 10:40:37;;;;;;;12.25;6.03;;;;;;;16.04;56.86;101028.38;5032423;28;20116;-76
2022/05/31 10:43:15;;;;;;;8.30;5.75;;;;;;;16.07;57.79;101033.31;5032070;28;20025;-75
2022/05/31 10:45:42;;;;;;;9.07;5.75;;;;;;;16.02;56.00;101030.56;5031593;28;20483;-75
2022/05/31 10:48:07;;;;;;;9.57;5.75;;;;;;;15.99;56.88;101032.94;5032323;28;20040;-76
2022/05/31 10:51:09;;;;;;;9.45;5.93;;;;;;;15.97;56.68;101035.94;5031849;28;20038;-74
2022/05/31 10:53:59;;;;;;;8.43;5.72;;;;;;;15.92;55.73;101030.44;5031963;28;20117;-77
2022/05/31 10:56:46;;;;;;;6.75;5.53;;;;;;;15.90;57.52;101040.78;5031992;28;20029;-74
2022/05/31 10:59:20;;;;;;;9.77;6.05;;;;;;;15.79;56.77;101033.56;5031976;28;20026;-74
2022/05/31 11:02:09;;;;;;;8.25;5.78;;;;;;;15.70;57.15;101034.00;5029501;28;20525;-76
2022/05/31 11:05:00;;;;;;;10.38;5.55;;;;;;;15.72;56.57;101025.56;5031988;28;20374;-74
2022/05/31 11:14:15;;;;;;;8.38;5.50;;;;;;;15.64;58.15;101036.91;5033958;28;20111;-75
2022/05/31 11:17:00;;;;;;;10.73;5.88;;;;;;;15.64;57.34;101040.47;5034907;28;20383;-75
2022/05/31 11:19:51;;;;;;;9.35;6.03;;;;;;;15.65;57.05;101033.09;5035431;28;20033;-75
2022/05/31 11:22:38;;;;;;;;;;;;;;;15.74;57.62;101040.56;5034140;28;20033;-74
2022/05/31 11:25:26;;;;;;;8.77;5.80;;;;;;;15.77;57.02;101042.81;5034846;28;19916;-75
2022/05/31 11:28:09;;;;;;;11.82;6.00;;;;;;;15.77;55.46;101045.53;5033873;28;20049;-75
2022/05/31 11:30:44;;;;;;;7.82;5.75;;;;;;;15.79;56.65;101045.28;5034939;28;20029;-74
2022/05/31 11:33:27;;;;;;;9.55;6.32;;;;;;;15.82;57.66;101046.69;5033659;28;20128;-74
2022/05/31 11:36:30;;;;;;;8.45;5.53;;;;;;;15.93;57.93;101049.28;5033524;28;20112;-75
2022/05/31 11:39:27;;;;;;;9.30;5.80;;;;;;;16.06;58.33;101042.63;5034771;28;20466;-75
2022/05/31 11:42:05;;;;;;;9.43;5.68;;;;;;;16.35;59.21;101036.88;5034773;28;20025;-75
2022/05/31 11:45:02;;;;;;;11.63;5.72;;;;;;;16.65;57.99;101043.66;5034460;28;20030;-75
2022/05/31 11:47:36;;;;;;;14.82;5.40;;;;;;;16.70;55.35;101041.00;5034628;28;20112;-75
2022/05/31 11:50:16;;;;;;;7.95;6.10;;;;;;;16.67;56.66;101046.97;5034257;28;20566;-74
2022/05/31 11:53:03;;;;;;;10.18;5.78;;;;;;;16.57;56.14;101044.16;5033830;28;20474;-77
2022/05/31 11:55:48;;;;;;;8.85;5.30;;;;;;;16.41;53.76;101038.56;5016982;28;20044;-77
2022/05/31 11:58:27;;;;;;;5.55;3.70;;;;;;;16.39;54.16;101048.91;5034653;28;20426;-74
2022/05/31 12:01:04;;;;;;;3.85;2.80;;;;;;;16.37;51.82;101053.00;5032029;28;20024;-76
2022/05/31 12:04:07;;;;;;;6.97;3.00;;;;;;;16.36;52.46;101048.63;5034637;28;20065;-75
2022/05/31 12:06:42;;;;;;;4.45;2.40;;;;;;;16.37;50.89;101053.81;5026392;28;20359;-75